Estaciones Metar próximas

 

LELL - Sabadell, Spain
Distancia a la estación: E 18km
Actualizado: 23/01/2020 02:30
Cubierto
Cubierto
 Viento del NE
Viento: NE 17 km/h
Temperatura: 14°C
Rocío: 13°C
Humedad: 94%
Barómetro: 1018 hPa
Nubes: Cubierto
Visibilidad: 10 km
Detalle Nubes: Nubes dispersas 244 m
Muy nuboso 366 m
Cubierto 549 m
2020/01/23 01:30 LELL 230130Z AUTO 05009KT 010V100 9999 FEW008 BKN012 OVC018 14/13 Q1018 RESHRA
LEBL - Barcelona Airpor, Spain
Distancia a la estación: SSE 33km
Actualizado: 23/01/2020 02:30
Mist, Muy nuboso
Mist, Muy nuboso
 Viento del ENE
Viento: ENE 33 km/h
Temperatura: 14°C
Rocío: 13°C
Humedad: 94%
Barómetro: 1018 hPa
Resumen: Mist
Nubes: Muy nuboso
Visibilidad: 5 km
Detalle Nubes: Parcialmente nuboso 274 m
Muy nuboso 549 m
Muy nuboso 884 m
2020/01/23 01:30 LEBL 230130Z 07018KT 5000 BR SCT009 BKN018 BKN029 14/13 Q1018 NOSIG
LERS - Reus (civ/Mil), Spain
Distancia a la estación: SO 75km
Actualizado: 23/01/2020 02:30
Lluvia, Muy nuboso
Lluvia, Muy nuboso
 Viento del varies
Viento: varies 6 km/h
Temperatura: 10°C
Rocío: 10°C
Humedad: 100%
Barómetro: 1017 hPa
Resumen: Lluvia
Nubes: Muy nuboso
Visibilidad: 10 km
Detalle Nubes: Muy nuboso 518 m
2020/01/23 01:30 LERS 230130Z AUTO VRB03KT 9999 RA BKN017 10/10 Q1017
 
LEGE - Gerona/Costa Bra, Spain
Distancia a la estación: ENE 83km
Actualizado: 23/01/2020 02:30
Lluvia débil, Cubierto
Lluvia débil, Cubierto
 Viento del E
Viento: E 13 km/h
Temperatura: 13°C
Rocío: 12°C
Humedad: 94%
Barómetro: 1020 hPa
Resumen: Lluvia débil
Nubes: Cubierto
Visibilidad: 6 km
Detalle Nubes: Cubierto 457 m
2020/01/23 01:30 LEGE 230130Z 09007KT 060V120 6000 -RA OVC015 13/12 Q1020
LFMP - Perpignan/Rivesa, France
Distancia a la estación: NNE 155km
Actualizado: 23/01/2020 02:30
Lluvia débil, Tormenta
Lluvia débil, Tormenta
 Viento del E
Viento: E 30 km/h
Temperatura: 13°C
Rocío: 11°C
Humedad: 88%
Barómetro: 1023 hPa
Resumen: Lluvia débil
Nubes: Tormenta
Visibilidad: 7 km
Detalle Nubes: Muy nuboso 366 m
Muy nuboso 640 m
Cubierto 1067 m
2020/01/23 01:30 LFMP 230130Z AUTO 08016KT 7000 -RA BKN012/// BKN021/// OVC035/// ///TCU 13/11 Q1023
LFMK - Carcassonne/Salv, France
Distancia a la estación: N 191km
Actualizado: 23/01/2020 02:30
Light drizzle, Cubierto
Light drizzle, Cubierto
 Viento del E
Viento: E 28 km/h
Temperatura: 10°C
Sensación Térmica: 7°C
Rocío: 7°C
Humedad: 82%
Barómetro: 1022 hPa
Resumen: Light Drizzle
Nubes: Cubierto
Visibilidad: 10 km
Detalle Nubes: Muy nuboso 640 m
Cubierto 792 m
2020/01/23 01:30 LFMK 230130Z AUTO 09015KT 9999 -DZ BKN021 OVC026 10/07 Q1022
 
LEHC - Huesca-Pirineos, Spain
Distancia a la estación: ONO 193km
Actualizado: 23/01/2020 02:30
Rain showers, Tormenta
Rain showers, Tormenta
 Viento del SSO
Viento: SSO 6 km/h
Temperatura: 4°C
Rocío: 4°C
Humedad: 100%
Barómetro: 1020 hPa
Resumen: Rain Showers
Nubes: Tormenta
Visibilidad: 9 km
Detalle Nubes: Parcialmente nuboso 1219 m
Parcialmente nuboso 1402 m
Muy nuboso 1798 m
2020/01/23 01:30 LEHC 230130Z AUTO 20003KT 9000 3400SE SHRA SCT040/// SCT046/// BKN059/// ///TCU 04/04 Q1020
LFMU - Beziers/Vias, France
Distancia a la estación: NNE 232km
Actualizado: 23/01/2020 02:30
Muy nuboso
Muy nuboso
 Viento del ENE
Viento: ENE 28 km/h
Temperatura: 10°C
Sensación Térmica: 7°C
Rocío: 3°C
Humedad: 62%
Barómetro: 1024 hPa
Nubes: Muy nuboso
Visibilidad: 10 km
Detalle Nubes: Nubes dispersas 1067 m
Muy nuboso 4572 m
2020/01/23 01:30 LFMU 230130Z AUTO 06015KT 9999 FEW035 BKN150 10/03 Q1024
LEPA - Palma De Mallorc, Spain
Distancia a la estación: SSE 233km
Actualizado: 23/01/2020 02:30
Parcialmente nuboso
Parcialmente nuboso
 Viento del varies
Viento: varies 4 km/h
Temperatura: 13°C
Rocío: 12°C
Humedad: 94%
Barómetro: 1018 hPa
Nubes: Parcialmente nuboso
Visibilidad: 10 km
Detalle Nubes: Nubes dispersas 671 m
Parcialmente nuboso 1158 m
2020/01/23 01:30 LEPA 230130Z VRB02KT 9999 FEW022 SCT038 13/12 Q1018 NOSIG
 
LFBO - Toulouse/Blagnac, France
Distancia a la estación: N 236km
Actualizado: 23/01/2020 02:30
Cubierto
Cubierto
 Viento del ESE
Viento: ESE 33 km/h, Racha: 54 km/h
Temperatura: 13°C
Rocío: 9°C
Humedad: 77%
Barómetro: 1020 hPa
Nubes: Cubierto
Visibilidad: 10 km
Detalle Nubes: Parcialmente nuboso 823 m
Cubierto 1341 m
2020/01/23 01:30 LFBO 230130Z AUTO 11018G29KT 9999 SCT027 OVC044 13/09 Q1020 BECMG 11015KT
LFBT - Tarbes/Ossun, France
Distancia a la estación: NO 239km
Actualizado: 23/01/2020 02:30
Cubierto
Cubierto
 Viento del varies
Viento: varies 4 km/h
Temperatura: 4°C
Rocío: 3°C
Humedad: 93%
Barómetro: 1019 hPa
Nubes: Cubierto
Visibilidad: 10 km
Detalle Nubes: Muy nuboso 2499 m
Muy nuboso 6706 m
Cubierto 7315 m
2020/01/23 01:30 LFBT 230130Z AUTO VRB02KT 9999 BKN082 BKN220 OVC240 04/03 Q1019 BECMG BKN008
LEZG - Zaragoza (mil/Ci, Spain
Distancia a la estación: O 242km
Actualizado: 23/01/2020 02:30
Mist, Muy nuboso
Mist, Muy nuboso
 Viento del calm
Viento: Calma
Temperatura: 7°C
Rocío: 7°C
Humedad: 100%
Barómetro: 1021 hPa
Resumen: Mist
Nubes: Muy nuboso
Visibilidad: 3 km
Detalle Nubes: Muy nuboso 183 m
Muy nuboso 457 m
2020/01/23 01:30 LEZG 230130Z 00000KT 3000 BR BKN006 BKN015 07/07 Q1021